createdAt,value
2019-06-26T00:02:00.227Z,24.45
2019-06-26T00:04:35.569Z,24.50
2019-06-26T00:07:09.782Z,24.45
2019-06-26T00:09:43.948Z,24.45
2019-06-26T00:12:20.300Z,24.43
2019-06-26T00:14:54.646Z,24.46
2019-06-26T00:17:28.827Z,24.44
2019-06-26T00:20:03.247Z,24.36
2019-06-26T00:22:38.781Z,24.35
2019-06-26T00:25:16.378Z,24.35
2019-06-26T00:27:50.300Z,24.27
2019-06-26T00:30:24.813Z,24.20
2019-06-26T00:33:01.137Z,24.16
2019-06-26T00:35:35.198Z,24.16
2019-06-26T00:38:09.589Z,24.12
2019-06-26T00:41:05.996Z,24.12
2019-06-26T00:43:45.083Z,24.05
2019-06-26T00:46:20.158Z,24.02
2019-06-26T00:48:56.309Z,24.02
2019-06-26T00:51:30.464Z,24.03
2019-06-26T01:02:26.715Z,23.91
2019-06-26T01:05:03.324Z,23.88
2019-06-26T01:07:39.009Z,23.86
2019-06-26T01:10:16.232Z,23.85
2019-06-26T01:12:51.236Z,23.78
2019-06-26T01:15:26.845Z,23.70
2019-06-26T01:18:05.670Z,23.73
2019-06-26T01:20:42.539Z,23.69
2019-06-26T01:23:17.626Z,23.58
2019-06-26T01:25:52.075Z,23.58
2019-06-26T01:28:27.202Z,23.57
2019-06-26T01:31:39.720Z,23.55
2019-06-26T01:37:52.145Z,23.55
2019-06-26T01:40:35.943Z,23.45
2019-06-26T01:43:44.522Z,23.48
2019-06-26T01:46:20.429Z,23.39
2019-06-26T01:49:03.498Z,23.39
2019-06-26T01:51:54.945Z,23.36
2019-06-26T01:54:35.731Z,23.31
2019-06-26T01:57:09.578Z,23.32
2019-06-26T01:59:44.157Z,23.29
2019-06-26T02:02:18.092Z,23.20
2019-06-26T02:04:52.522Z,23.18
2019-06-26T02:07:26.552Z,23.01
2019-06-26T02:10:00.568Z,23.01
2019-06-26T02:12:34.793Z,23.03
2019-06-26T02:15:10.836Z,23.01
2019-06-26T02:17:45.159Z,22.95
2019-06-26T02:20:19.649Z,22.96
2019-06-26T02:22:54.255Z,22.96
2019-06-26T02:25:28.226Z,22.91
2019-06-26T02:28:02.315Z,22.87
2019-06-26T02:30:36.189Z,22.85
2019-06-26T02:33:10.371Z,22.82
2019-06-26T02:35:47.350Z,22.80
2019-06-26T02:38:23.052Z,22.74
2019-06-26T02:40:59.873Z,22.72
2019-06-26T02:43:34.617Z,22.71
2019-06-26T02:46:10.469Z,22.69
2019-06-26T02:48:44.644Z,22.66
2019-06-26T02:51:18.876Z,22.63
2019-06-26T02:53:52.940Z,22.59
2019-06-26T03:04:29.138Z,22.60
2019-06-26T03:07:04.504Z,22.59
2019-06-26T03:09:42.435Z,22.57
2019-06-26T03:12:18.336Z,22.50
2019-06-26T03:15:20.978Z,22.53
2019-06-26T03:20:58.171Z,22.51
2019-06-26T03:23:34.245Z,22.49
2019-06-26T03:26:09.776Z,22.50
2019-06-26T03:29:26.915Z,22.48
2019-06-26T03:32:08.421Z,22.52
2019-06-26T03:34:44.524Z,22.50
2019-06-26T03:37:21.325Z,22.55
2019-06-26T03:39:59.047Z,22.61
2019-06-26T03:42:34.343Z,22.65
2019-06-26T03:45:24.575Z,22.67
2019-06-26T03:47:43.997Z,22.67
2019-06-26T03:50:17.373Z,22.69
2019-06-26T03:52:50.446Z,22.72
2019-06-26T03:55:23.878Z,22.78
2019-06-26T03:57:56.963Z,22.84
2019-06-26T04:00:41.436Z,22.90
2019-06-26T04:03:15.463Z,22.98
2019-06-26T04:05:49.638Z,23.02
2019-06-26T04:08:22.806Z,23.08
2019-06-26T04:10:55.954Z,23.18
2019-06-26T04:13:29.774Z,23.26
2019-06-26T04:16:02.860Z,23.34
2019-06-26T04:18:36.091Z,23.41
2019-06-26T04:21:09.232Z,23.48
2019-06-26T04:23:42.411Z,23.55
2019-06-26T04:26:15.490Z,23.61
2019-06-26T04:28:48.725Z,23.69
2019-06-26T04:31:21.883Z,23.75
2019-06-26T04:33:55.044Z,23.88
2019-06-26T04:36:28.205Z,23.88
2019-06-26T04:39:01.919Z,24.01
2019-06-26T04:41:36.425Z,24.15
2019-06-26T04:44:10.043Z,24.15
2019-06-26T04:46:44.141Z,24.30
2019-06-26T04:49:17.637Z,24.42
2019-06-26T04:51:51.237Z,24.53
2019-06-26T04:54:25.067Z,24.65
2019-06-26T04:56:58.497Z,24.78
2019-06-26T04:59:31.978Z,25.01
2019-06-26T05:02:05.362Z,25.01
2019-06-26T05:04:38.789Z,25.09
2019-06-26T05:07:12.881Z,25.20
2019-06-26T05:09:46.718Z,25.38
2019-06-26T05:12:20.182Z,25.54
2019-06-26T05:14:53.642Z,25.69
2019-06-26T05:17:27.336Z,25.87
2019-06-26T05:20:00.847Z,26.02
2019-06-26T05:22:34.258Z,26.18
2019-06-26T05:25:08.175Z,26.31
2019-06-26T05:27:41.749Z,26.43
2019-06-26T05:30:16.025Z,26.56
2019-06-26T05:32:49.657Z,26.69
2019-06-26T05:35:23.531Z,26.79
2019-06-26T05:37:57.377Z,26.99
2019-06-26T05:40:30.908Z,27.14
2019-06-26T05:43:04.506Z,27.22
2019-06-26T05:45:38.097Z,27.42
2019-06-26T05:48:11.742Z,27.49
2019-06-26T05:50:46.342Z,27.64
2019-06-26T05:53:19.805Z,27.78
2019-06-26T05:55:53.181Z,27.92
2019-06-26T05:58:26.581Z,27.99
2019-06-26T06:01:00.265Z,28.19
2019-06-26T06:03:33.974Z,28.41
2019-06-26T06:06:08.734Z,28.56
2019-06-26T06:08:42.636Z,28.71
2019-06-26T06:11:18.013Z,28.83
2019-06-26T06:13:51.580Z,28.99
2019-06-26T06:16:24.989Z,29.14
2019-06-26T06:18:58.986Z,29.32
2019-06-26T06:21:33.178Z,29.47
2019-06-26T06:24:07.554Z,29.58
2019-06-26T06:26:43.667Z,29.52
2019-06-26T06:29:17.280Z,29.61
2019-06-26T06:31:50.980Z,29.82
2019-06-26T06:34:24.578Z,29.87
2019-06-26T06:36:58.228Z,29.99
2019-06-26T06:39:31.863Z,30.05
2019-06-26T06:42:05.540Z,30.20
2019-06-26T06:44:38.993Z,30.34
2019-06-26T06:47:12.250Z,30.52
2019-06-26T06:49:45.480Z,30.62
2019-06-26T06:52:18.575Z,30.64
2019-06-26T06:54:51.759Z,30.79
2019-06-26T06:57:24.990Z,30.98
2019-06-26T06:59:59.158Z,31.12
2019-06-26T07:02:33.108Z,31.32
2019-06-26T07:05:06.579Z,31.41
2019-06-26T07:07:39.746Z,31.50
2019-06-26T07:10:13.201Z,31.56
2019-06-26T07:12:46.440Z,31.76
2019-06-26T07:15:20.285Z,31.94
2019-06-26T07:17:53.842Z,32.08
2019-06-26T07:20:26.987Z,32.11
2019-06-26T07:23:00.885Z,32.25
2019-06-26T07:25:34.193Z,32.41
2019-06-26T07:28:08.462Z,32.47
2019-06-26T07:30:41.867Z,32.58
2019-06-26T07:33:15.535Z,32.70
2019-06-26T07:35:48.840Z,32.71
2019-06-26T07:38:22.173Z,32.70
2019-06-26T07:40:55.576Z,32.88
2019-06-26T07:43:30.215Z,32.90
2019-06-26T07:46:03.667Z,32.98
2019-06-26T07:48:37.060Z,33.14
2019-06-26T07:51:10.841Z,33.24
2019-06-26T07:53:44.238Z,33.36
2019-06-26T07:56:17.764Z,33.43
2019-06-26T07:58:52.256Z,33.54
2019-06-26T08:01:26.636Z,33.65
2019-06-26T08:04:01.160Z,33.67
2019-06-26T08:06:34.940Z,33.70
2019-06-26T08:09:09.898Z,33.76
2019-06-26T08:11:44.844Z,33.90
2019-06-26T08:14:19.707Z,33.88
2019-06-26T08:16:53.543Z,34.14
2019-06-26T08:19:27.299Z,34.19
2019-06-26T08:22:01.187Z,34.30
2019-06-26T08:24:36.314Z,34.33
2019-06-26T08:27:13.225Z,34.32
2019-06-26T08:29:47.240Z,34.47
2019-06-26T08:32:26.040Z,34.67
2019-06-26T08:34:59.446Z,34.68
2019-06-26T08:37:35.304Z,34.66
2019-06-26T08:40:09.834Z,34.78
2019-06-26T08:42:44.189Z,34.91
2019-06-26T08:45:25.371Z,35.04
2019-06-26T08:48:13.484Z,34.92
2019-06-26T08:50:34.424Z,35.00
2019-06-26T08:53:09.769Z,35.08
2019-06-26T08:55:48.661Z,35.22
2019-06-26T08:58:27.378Z,35.37
2019-06-26T09:01:07.289Z,35.59
2019-06-26T09:03:43.749Z,35.71
2019-06-26T09:06:17.895Z,35.77
2019-06-26T09:08:54.275Z,35.78
2019-06-26T09:11:28.016Z,35.65
2019-06-26T09:14:05.534Z,35.78
2019-06-26T09:16:42.415Z,35.96
2019-06-26T09:19:17.759Z,36.05
2019-06-26T09:21:57.086Z,36.11
2019-06-26T09:24:41.643Z,36.20
2019-06-26T09:28:09.124Z,36.18
2019-06-26T09:32:14.049Z,36.28
2019-06-26T09:38:33.965Z,36.30
2019-06-26T09:41:54.877Z,36.45
2019-06-26T09:48:32.998Z,36.35
2019-06-26T09:52:03.585Z,36.27
2019-06-26T09:59:32.845Z,36.45
2019-06-26T10:02:08.331Z,36.58
2019-06-26T10:04:49.092Z,36.60
2019-06-26T10:07:26.395Z,36.54
2019-06-26T10:10:23.458Z,36.59
2019-06-26T10:13:01.121Z,36.36
2019-06-26T10:15:36.167Z,36.38
2019-06-26T10:18:13.929Z,36.66
2019-06-26T10:20:55.521Z,36.70
2019-06-26T10:31:55.534Z,37.00
2019-06-26T10:34:47.789Z,37.14
2019-06-26T10:40:39.239Z,37.50
2019-06-26T10:43:29.175Z,37.51
2019-06-26T10:46:08.209Z,37.60
2019-06-26T10:48:46.525Z,37.62
2019-06-26T10:51:20.486Z,37.69
2019-06-26T10:53:56.646Z,37.75
2019-06-26T10:56:34.684Z,37.64
2019-06-26T10:59:10.254Z,37.71
2019-06-26T11:01:45.332Z,37.84
2019-06-26T11:04:28.517Z,37.94
2019-06-26T11:07:02.568Z,38.01
2019-06-26T11:09:38.165Z,38.11
2019-06-26T11:12:21.565Z,38.15
2019-06-26T11:14:55.992Z,38.15
2019-06-26T11:17:34.384Z,38.10
2019-06-26T11:20:09.501Z,38.05
2019-06-26T11:23:07.936Z,38.13
2019-06-26T11:25:56.839Z,38.30
2019-06-26T11:28:36.545Z,38.37
2019-06-26T11:31:13.578Z,38.48
2019-06-26T11:33:55.655Z,38.35
2019-06-26T11:36:29.229Z,38.51
2019-06-26T11:39:04.194Z,38.50
2019-06-26T11:41:42.668Z,38.54
2019-06-26T11:44:16.558Z,38.52
2019-06-26T11:46:50.724Z,38.53
2019-06-26T11:49:27.544Z,38.53
2019-06-26T11:52:07.035Z,38.57
2019-06-26T11:54:41.114Z,38.49
2019-06-26T11:57:23.681Z,38.57
2019-06-26T11:59:54.111Z,38.59
2019-06-26T12:02:32.975Z,38.58
2019-06-26T12:05:08.403Z,38.43
2019-06-26T12:07:42.336Z,38.62
2019-06-26T12:10:17.081Z,38.74
2019-06-26T12:12:54.519Z,38.82
2019-06-26T12:15:32.107Z,38.84
2019-06-26T12:18:08.348Z,38.69
2019-06-26T12:20:43.547Z,38.72
2019-06-26T12:23:17.050Z,38.71
2019-06-26T12:25:53.933Z,38.64
2019-06-26T12:28:29.865Z,38.64
2019-06-26T12:32:13.646Z,38.72
2019-06-26T12:50:35.459Z,38.92
2019-06-26T12:53:04.382Z,39.00
2019-06-26T12:55:38.541Z,39.04
2019-06-26T12:58:19.979Z,38.99
2019-06-26T13:00:51.663Z,39.03
2019-06-26T13:03:25.195Z,39.04
2019-06-26T13:06:03.575Z,39.16
2019-06-26T13:08:37.991Z,39.23
2019-06-26T13:11:12.993Z,39.17
2019-06-26T13:14:02.413Z,39.06
2019-06-26T13:16:29.323Z,39.04
2019-06-26T13:19:06.369Z,39.02
2019-06-26T13:21:39.911Z,39.09
2019-06-26T13:24:13.536Z,39.08
2019-06-26T13:26:47.140Z,39.06
2019-06-26T13:29:20.924Z,39.08
2019-06-26T13:31:54.871Z,39.11
2019-06-26T13:34:30.112Z,39.15
2019-06-26T13:37:07.323Z,39.07
2019-06-26T13:39:40.398Z,39.11
2019-06-26T13:42:15.181Z,39.03
2019-06-26T13:44:48.729Z,38.98
2019-06-26T13:47:22.304Z,39.01
2019-06-26T13:49:55.898Z,39.00
2019-06-26T13:52:29.612Z,39.01
2019-06-26T13:55:03.116Z,38.97
2019-06-26T13:57:40.178Z,38.98
2019-06-26T14:00:19.747Z,38.92
2019-06-26T14:02:54.742Z,38.83
2019-06-26T14:05:29.663Z,38.74
2019-06-26T14:08:03.357Z,38.69
2019-06-26T14:10:37.353Z,38.64
2019-06-26T14:13:10.937Z,38.61
2019-06-26T14:15:46.111Z,38.64
2019-06-26T14:18:19.622Z,38.67
2019-06-26T14:20:53.990Z,38.59
2019-06-26T14:23:29.251Z,38.54
2019-06-26T14:26:02.767Z,38.57
2019-06-26T14:28:38.269Z,38.47
2019-06-26T14:31:11.787Z,38.41
2019-06-26T14:33:50.145Z,38.35
2019-06-26T14:36:23.914Z,38.31
2019-06-26T14:39:09.212Z,38.20
2019-06-26T14:41:48.086Z,38.04
2019-06-26T14:44:27.259Z,37.84
2019-06-26T14:47:04.042Z,37.86
2019-06-26T14:49:42.659Z,37.94
2019-06-26T14:52:19.758Z,37.97
2019-06-26T14:54:58.192Z,37.92
2019-06-26T14:57:34.390Z,37.94
2019-06-26T15:00:09.794Z,37.90
2019-06-26T15:02:46.145Z,37.87
2019-06-26T15:05:19.872Z,37.84
2019-06-26T15:07:55.560Z,37.77
2019-06-26T15:10:29.336Z,37.70
2019-06-26T15:13:07.567Z,37.73
2019-06-26T15:15:45.625Z,37.69
2019-06-26T15:18:19.538Z,37.51
2019-06-26T15:21:00.896Z,37.38
2019-06-26T15:23:39.749Z,37.22
2019-06-26T15:26:23.390Z,37.17
2019-06-26T15:28:54.164Z,37.14
2019-06-26T15:31:27.869Z,37.19
2019-06-26T15:34:03.824Z,37.19
2019-06-26T15:36:46.994Z,37.19
2019-06-26T15:39:39.665Z,37.10
2019-06-26T15:42:15.594Z,36.94
2019-06-26T15:44:50.800Z,36.91
2019-06-26T15:48:11.197Z,36.90
2019-06-26T15:50:49.072Z,36.89
2019-06-26T15:53:28.138Z,36.89
2019-06-26T15:56:06.427Z,36.90
2019-06-26T15:58:42.137Z,36.86
2019-06-26T16:01:15.836Z,36.81
2019-06-26T16:03:52.822Z,36.82
2019-06-26T16:06:45.669Z,36.81
2019-06-26T16:09:22.159Z,36.82
2019-06-26T16:11:58.913Z,36.80
2019-06-26T16:14:33.721Z,36.76
2019-06-26T16:17:13.406Z,36.71
2019-06-26T16:19:47.466Z,36.71
2019-06-26T16:22:31.864Z,36.69
2019-06-26T16:25:01.318Z,36.66
2019-06-26T16:27:34.959Z,36.56
2019-06-26T16:30:09.406Z,36.47
2019-06-26T16:33:03.358Z,36.49
2019-06-26T16:35:43.629Z,36.44
2019-06-26T16:38:31.069Z,36.43
2019-06-26T16:41:06.406Z,36.23
2019-06-26T16:43:40.256Z,36.38
2019-06-26T16:46:54.743Z,36.35
2019-06-26T16:49:28.660Z,36.34
2019-06-26T16:52:03.238Z,36.29
2019-06-26T16:54:47.752Z,36.27
2019-06-26T16:57:31.009Z,36.23
2019-06-26T17:00:21.399Z,36.18
2019-06-26T17:02:55.406Z,36.15
2019-06-26T17:05:29.238Z,36.12
2019-06-26T17:08:05.448Z,36.08
2019-06-26T17:10:40.357Z,36.01
2019-06-26T17:16:20.112Z,35.85
2019-06-26T17:18:53.903Z,35.79
2019-06-26T17:21:27.232Z,35.73
2019-06-26T17:24:00.549Z,35.66
2019-06-26T17:26:34.236Z,35.63
2019-06-26T17:29:07.552Z,35.44
2019-06-26T17:31:44.399Z,35.41
2019-06-26T17:34:18.022Z,35.35
2019-06-26T17:36:53.223Z,35.31
2019-06-26T17:39:27.763Z,35.21
2019-06-26T17:42:01.271Z,35.17
2019-06-26T17:44:34.769Z,35.11
2019-06-26T17:47:08.195Z,35.03
2019-06-26T17:49:42.745Z,34.94
2019-06-26T17:52:16.119Z,34.83
2019-06-26T17:54:51.011Z,34.74
2019-06-26T17:57:24.413Z,34.65
2019-06-26T17:59:57.854Z,34.57
2019-06-26T18:02:31.496Z,34.48
2019-06-26T18:05:08.995Z,34.39
2019-06-26T18:07:47.409Z,34.32
2019-06-26T18:10:20.841Z,34.27
2019-06-26T18:12:54.281Z,34.22
2019-06-26T18:15:31.448Z,34.13
2019-06-26T18:18:06.758Z,34.09
2019-06-26T18:20:40.081Z,34.03
2019-06-26T18:23:14.937Z,34.00
2019-06-26T18:25:54.083Z,33.96
2019-06-26T18:28:23.750Z,33.91
2019-06-26T18:30:59.190Z,33.87
2019-06-26T18:33:32.510Z,33.79
2019-06-26T18:36:06.063Z,33.75
2019-06-26T18:38:39.559Z,33.70
2019-06-26T18:41:13.447Z,33.65
2019-06-26T18:43:46.786Z,33.61
2019-06-26T18:46:24.785Z,33.55
2019-06-26T18:48:57.097Z,33.48
2019-06-26T18:51:36.085Z,33.43
2019-06-26T18:54:09.711Z,33.38
2019-06-26T18:56:42.897Z,33.32
2019-06-26T18:59:16.345Z,33.26
2019-06-26T19:01:49.631Z,33.20
2019-06-26T19:04:23.042Z,33.13
2019-06-26T19:07:00.466Z,33.06
2019-06-26T19:09:35.691Z,32.97
2019-06-26T19:12:09.081Z,32.94
2019-06-26T19:14:46.080Z,32.84
2019-06-26T19:17:19.887Z,32.78
2019-06-26T19:19:53.447Z,32.72
2019-06-26T19:22:27.006Z,32.67
2019-06-26T19:25:00.994Z,32.61
2019-06-26T19:27:38.553Z,32.57
2019-06-26T19:30:12.553Z,32.52
2019-06-26T19:32:46.599Z,32.49
2019-06-26T19:35:23.041Z,32.38
2019-06-26T19:37:56.722Z,32.33
2019-06-26T19:40:33.616Z,32.29
2019-06-26T19:43:11.189Z,32.27
2019-06-26T19:45:44.705Z,32.23
2019-06-26T19:48:24.605Z,32.11
2019-06-26T19:50:57.919Z,32.09
2019-06-26T19:53:31.556Z,32.02
2019-06-26T19:56:05.026Z,31.94
2019-06-26T19:58:38.335Z,31.89
2019-06-26T20:01:11.757Z,31.76
2019-06-26T20:03:46.223Z,31.75
2019-06-26T20:06:19.563Z,31.68
2019-06-26T20:08:57.295Z,31.59
2019-06-26T20:11:28.073Z,31.56
2019-06-26T20:14:01.207Z,31.47
2019-06-26T20:16:53.180Z,31.44
2019-06-26T20:19:29.394Z,31.34
2019-06-26T20:22:04.216Z,31.26
2019-06-26T20:24:44.134Z,31.16
2019-06-26T20:27:13.334Z,31.07
2019-06-26T20:29:46.566Z,31.05
2019-06-26T20:32:19.858Z,30.97
2019-06-26T20:34:53.146Z,30.87
2019-06-26T20:37:26.343Z,30.85
2019-06-26T20:40:00.000Z,30.78
2019-06-26T20:42:33.380Z,30.72
2019-06-26T20:45:08.605Z,30.71
2019-06-26T20:47:42.206Z,30.71
2019-06-26T20:50:16.730Z,30.65
2019-06-26T20:52:50.839Z,30.62
2019-06-26T20:55:24.431Z,30.55
2019-06-26T20:57:58.758Z,30.52
2019-06-26T21:00:32.632Z,30.48
2019-06-26T21:03:05.967Z,30.46
2019-06-26T21:05:39.237Z,30.14
2019-06-26T21:08:12.460Z,30.19
2019-06-26T21:10:47.266Z,30.15
2019-06-26T21:13:20.898Z,30.07
2019-06-26T21:15:55.160Z,30.03
2019-06-26T21:18:28.793Z,29.80
2019-06-26T21:21:05.046Z,29.79
2019-06-26T21:23:38.539Z,29.64
2019-06-26T21:26:11.787Z,29.62
2019-06-26T21:28:46.206Z,29.55
2019-06-26T21:31:19.486Z,29.51
2019-06-26T21:33:52.638Z,29.45
2019-06-26T21:36:25.893Z,29.38
2019-06-26T21:38:59.152Z,29.29
2019-06-26T21:41:32.445Z,29.11
2019-06-26T21:44:05.858Z,29.07
2019-06-26T21:46:40.231Z,29.05
2019-06-26T21:49:13.518Z,28.98
2019-06-26T21:51:46.722Z,28.89
2019-06-26T21:54:19.945Z,28.95
2019-06-26T21:57:11.303Z,28.76
2019-06-26T22:00:02.312Z,28.79
2019-06-26T22:02:57.605Z,28.74
2019-06-26T22:05:32.964Z,28.75
2019-06-26T22:08:19.512Z,28.76
2019-06-26T22:10:54.646Z,28.74
2019-06-26T22:13:28.106Z,28.61
2019-06-26T22:16:01.553Z,28.57
2019-06-26T22:18:36.540Z,28.54
2019-06-26T22:21:09.972Z,28.50
2019-06-26T22:23:45.765Z,28.43
2019-06-26T22:26:19.122Z,28.38
2019-06-26T22:28:52.477Z,28.31
2019-06-26T22:31:25.996Z,28.26
2019-06-26T22:33:59.672Z,28.10
2019-06-26T22:36:39.249Z,28.11
2019-06-26T22:39:09.211Z,28.07
2019-06-26T22:41:43.991Z,28.07
2019-06-26T22:44:17.590Z,28.01
2019-06-26T22:46:51.115Z,27.95
2019-06-26T22:49:25.440Z,27.94
2019-06-26T22:51:59.557Z,27.93
2019-06-26T22:54:33.128Z,27.89
2019-06-26T22:57:06.568Z,27.85
2019-06-26T22:59:41.215Z,27.85
2019-06-26T23:02:14.850Z,27.77
2019-06-26T23:04:48.472Z,27.77
2019-06-26T23:07:22.361Z,27.74
2019-06-26T23:09:55.814Z,27.72
2019-06-26T23:12:29.469Z,27.68
2019-06-26T23:15:04.061Z,27.64
2019-06-26T23:17:37.628Z,27.52
2019-06-26T23:20:11.577Z,27.41
2019-06-26T23:22:46.435Z,27.25
2019-06-26T23:25:21.334Z,27.26
2019-06-26T23:27:55.021Z,27.17
2019-06-26T23:30:28.781Z,27.12
2019-06-26T23:33:02.315Z,27.00
2019-06-26T23:35:47.212Z,26.97
2019-06-26T23:38:16.860Z,26.82
2019-06-26T23:40:50.532Z,26.70
2019-06-26T23:43:24.138Z,26.70
2019-06-26T23:45:57.738Z,26.70
2019-06-26T23:48:34.237Z,26.65
2019-06-26T23:51:08.980Z,26.61
2019-06-26T23:53:48.964Z,26.64
2019-06-26T23:56:39.479Z,26.58
2019-06-26T23:58:59.663Z,26.47
